Time;durP1;ratioP1;P1;durP2;ratioP2;P2;SDS_P1;SDS_P2;PMS_P1;PMS_P2;Temp;Humidity;BMP_temperature;BMP_pressure;BME280_temperature;BME280_humidity;BME280_pressure;Samples;Min_cycle;Max_cycle;Signal;HPM_P1;HPM_P2
2022/11/22 00:02:22;;;;;;;;;;;19.10;39.40;;;;;;5028403;28;19985;-68
2022/11/22 00:04:49;;;;;;;;;;;19.10;39.40;;;;;;5032627;28;19993;-69
2022/11/22 00:07:16;;;;;;;;;;;19.10;39.40;;;;;;5056447;28;19915;-67
2022/11/22 00:09:42;;;;;;;;;;;19.10;39.30;;;;;;5050269;28;19909;-67
2022/11/22 00:12:11;;;;;;;;;;;19.10;39.40;;;;;;5040318;28;19937;-66
2022/11/22 00:14:37;;;;;;;;;;;19.10;39.40;;;;;;5057732;28;19909;-68
2022/11/22 00:17:04;;;;;;;;;;;19.10;39.40;;;;;;5040563;28;19921;-68
2022/11/22 00:19:32;;;;;;;;;;;19.10;39.40;;;;;;5057458;28;19916;-68
2022/11/22 00:21:59;;;;;;;;;;;19.10;39.40;;;;;;5026089;28;19910;-68
2022/11/22 00:24:25;;;;;;;;;;;19.10;39.40;;;;;;5030902;28;19915;-67
2022/11/22 00:26:52;;;;;;;;;;;19.10;39.30;;;;;;5052599;28;19944;-68
2022/11/22 00:29:20;;;;;;;;;;;19.10;39.40;;;;;;5030640;28;19932;-68
2022/11/22 00:31:47;;;;;;;;;;;19.10;39.30;;;;;;5050293;28;19909;-68
2022/11/22 00:34:14;;;;;;;;;;;19.10;39.30;;;;;;5053881;28;19931;-67
2022/11/22 00:36:42;;;;;;;;;;;19.10;39.30;;;;;;5041303;28;19909;-67
2022/11/22 00:39:09;;;;;;;;;;;19.10;39.30;;;;;;5026698;28;19924;-68
2022/11/22 00:41:36;;;;;;;;;;;19.10;39.30;;;;;;5050591;28;19932;-67
2022/11/22 00:44:03;;;;;;;;;;;19.10;39.30;;;;;;5040963;28;19909;-66
2022/11/22 00:46:31;;;;;;;;;;;19.10;39.30;;;;;;5038649;28;19932;-67
2022/11/22 00:48:58;;;;;;;;;;;19.10;39.30;;;;;;5041516;28;19924;-68
2022/11/22 00:51:25;;;;;;;;;;;19.10;39.30;;;;;;5040455;28;19913;-68
2022/11/22 00:53:52;;;;;;;;;;;19.10;39.30;;;;;;5039324;28;19909;-67
2022/11/22 00:56:19;;;;;;;;;;;19.10;39.30;;;;;;5054537;28;19940;-67
2022/11/22 00:58:45;;;;;;;;;;;19.10;39.30;;;;;;5055771;28;19915;-68
2022/11/22 01:01:12;;;;;;;;;;;19.10;39.30;;;;;;5057480;28;19976;-67
2022/11/22 01:03:40;;;;;;;;;;;19.10;39.30;;;;;;5041990;28;19971;-68
2022/11/22 01:06:07;;;;;;;;;;;19.10;39.30;;;;;;5041134;28;19910;-68
2022/11/22 01:08:34;;;;;;;;;;;19.10;39.30;;;;;;5040521;28;19910;-68
2022/11/22 01:11:01;;;;;;;;;;;19.10;39.30;;;;;;5042460;28;19909;-68
2022/11/22 01:13:28;;;;;;;;;;;19.10;39.30;;;;;;5036873;28;19968;-68
2022/11/22 01:15:59;;;;;;;;;;;19.10;39.30;;;;;;5035724;28;19944;-67
2022/11/22 01:18:30;;;;;;;;;;;19.10;39.30;;;;;;5035252;28;19913;-67
2022/11/22 01:20:58;;;;;;;;;;;19.10;39.30;;;;;;5041625;28;19910;-68
2022/11/22 01:23:25;;;;;;;;;;;19.10;39.30;;;;;;5041858;28;19917;-68
2022/11/22 01:25:52;;;;;;;;;;;19.10;39.30;;;;;;5044288;28;19909;-68
2022/11/22 01:28:19;;;;;;;;;;;19.10;39.30;;;;;;5061351;28;19909;-68
2022/11/22 01:30:45;;;;;;;;;;;19.10;39.30;;;;;;5060432;28;19977;-67
2022/11/22 01:33:13;;;;;;;;;;;19.10;39.90;;;;;;5061018;28;19928;-67
2022/11/22 01:35:40;;;;;;;;;;;19.10;39.30;;;;;;5043015;28;19909;-67
2022/11/22 01:38:08;;;;;;;;;;;19.10;39.30;;;;;;5044271;28;19909;-67
2022/11/22 01:40:36;;;;;;;;;;;19.10;39.30;;;;;;5041348;28;19917;-67
2022/11/22 01:43:02;;;;;;;;;;;19.10;39.30;;;;;;5032588;28;19913;-67
2022/11/22 01:45:43;;;;;;;;;;;19.10;39.30;;;;;;5042744;28;19916;-67
2022/11/22 01:48:21;;;;;;;;;;;19.10;39.30;;;;;;5040547;28;19910;-67
2022/11/22 01:50:50;;;;;;;;;;;19.10;39.30;;;;;;5053044;28;19941;-68
2022/11/22 01:53:19;;;;;;;;;;;19.00;39.20;;;;;;5055118;28;19910;-68
2022/11/22 01:55:45;;;;;;;;;;;19.00;39.20;;;;;;5043555;28;19920;-67
2022/11/22 01:58:12;;;;;;;;;;;19.10;39.30;;;;;;5080641;28;19979;-68
2022/11/22 02:00:39;;;;;;;;;;;19.10;39.20;;;;;;5061384;28;19916;-67
2022/11/22 02:03:07;;;;;;;;;;;19.10;39.30;;;;;;5042853;28;19916;-67
2022/11/22 02:05:33;;;;;;;;;;;19.00;39.10;;;;;;5042711;28;19947;-68
2022/11/22 02:08:01;;;;;;;;;;;19.00;39.10;;;;;;5042365;28;19915;-68
2022/11/22 02:10:29;;;;;;;;;;;19.00;39.10;;;;;;5041942;28;19913;-68
2022/11/22 02:12:57;;;;;;;;;;;19.10;39.20;;;;;;5060456;28;19943;-68
2022/11/22 02:15:25;;;;;;;;;;;19.00;39.10;;;;;;5046176;28;19920;-67
2022/11/22 02:17:51;;;;;;;;;;;19.10;39.20;;;;;;5054127;28;19932;-67
2022/11/22 02:20:18;;;;;;;;;;;19.10;39.20;;;;;;5038277;28;19931;-67
2022/11/22 02:22:46;;;;;;;;;;;19.00;39.10;;;;;;5060174;28;19921;-67
2022/11/22 02:25:14;;;;;;;;;;;19.10;39.20;;;;;;5050825;28;19917;-67
2022/11/22 02:27:42;;;;;;;;;;;19.10;39.20;;;;;;5058524;28;19932;-68
2022/11/22 02:30:09;;;;;;;;;;;19.00;39.10;;;;;;5051163;28;19909;-67
2022/11/22 02:32:37;;;;;;;;;;;19.00;39.10;;;;;;5042462;28;19916;-67
2022/11/22 02:35:13;;;;;;;;;;;19.00;39.10;;;;;;5041435;28;19912;-68
2022/11/22 02:37:40;;;;;;;;;;;19.00;39.00;;;;;;5058918;28;19931;-68
2022/11/22 02:40:07;;;;;;;;;;;19.00;39.00;;;;;;5058675;28;19919;-68
2022/11/22 02:42:34;;;;;;;;;;;19.00;39.00;;;;;;5058644;28;19932;-67
2022/11/22 02:45:02;;;;;;;;;;;19.10;39.10;;;;;;5042354;28;19916;-67
2022/11/22 02:47:29;;;;;;;;;;;19.00;39.00;;;;;;5027516;28;19909;-68
2022/11/22 02:49:56;;;;;;;;;;;19.00;39.00;;;;;;5039316;28;19963;-68
2022/11/22 02:52:27;;;;;;;;;;;19.00;39.00;;;;;;5055889;28;19913;-67
2022/11/22 02:54:53;;;;;;;;;;;19.00;39.00;;;;;;5040680;28;19980;-68
2022/11/22 02:57:20;;;;;;;;;;;19.00;39.00;;;;;;5036729;28;19919;-68
2022/11/22 02:59:47;;;;;;;;;;;19.00;39.00;;;;;;5043382;28;19916;-67
2022/11/22 03:02:15;;;;;;;;;;;19.00;39.00;;;;;;5050812;28;19972;-68
2022/11/22 03:04:42;;;;;;;;;;;19.00;39.00;;;;;;5058093;28;20029;-68
2022/11/22 03:07:09;;;;;;;;;;;19.00;39.00;;;;;;5049536;28;19913;-68
2022/11/22 03:09:36;;;;;;;;;;;19.00;39.00;;;;;;5059144;28;19916;-67
2022/11/22 03:12:02;;;;;;;;;;;19.00;39.00;;;;;;5047256;28;19915;-67
2022/11/22 03:14:29;;;;;;;;;;;19.00;39.00;;;;;;5055416;28;19915;-67
2022/11/22 03:16:56;;;;;;;;;;;19.00;39.00;;;;;;5051756;28;19918;-68
2022/11/22 03:19:24;;;;;;;;;;;19.00;39.00;;;;;;5042262;28;19924;-68
2022/11/22 03:21:51;;;;;;;;;;;19.00;39.00;;;;;;5047939;28;19920;-68
2022/11/22 03:24:20;;;;;;;;;;;19.00;39.00;;;;;;5049898;28;19916;-68
2022/11/22 03:26:47;;;;;;;;;;;19.00;39.00;;;;;;5042031;28;19988;-68
2022/11/22 03:29:14;;;;;;;;;;;19.00;38.90;;;;;;5034474;28;19924;-67
2022/11/22 03:31:40;;;;;;;;;;;19.00;38.90;;;;;;5022874;28;19914;-68
2022/11/22 03:34:07;;;;;;;;;;;19.00;39.00;;;;;;5057146;28;19909;-68
2022/11/22 03:36:35;;;;;;;;;;;19.00;38.90;;;;;;5045011;28;19909;-67
2022/11/22 03:39:02;;;;;;;;;;;19.00;38.90;;;;;;5037342;28;19924;-68
2022/11/22 03:41:29;;;;;;;;;;;19.00;38.90;;;;;;5054793;28;19908;-67
2022/11/22 03:43:56;;;;;;;;;;;19.00;38.90;;;;;;5027220;28;19913;-67
2022/11/22 03:46:22;;;;;;;;;;;19.00;38.90;;;;;;5042595;28;19909;-67
2022/11/22 03:48:49;;;;;;;;;;;19.00;38.90;;;;;;5048684;28;19910;-68
2022/11/22 03:51:19;;;;;;;;;;;19.00;38.90;;;;;;5030234;28;19939;-67
2022/11/22 03:53:47;;;;;;;;;;;19.00;38.90;;;;;;5041789;28;20037;-68
2022/11/22 03:56:14;;;;;;;;;;;19.00;38.90;;;;;;5050033;28;19909;-68
2022/11/22 03:58:41;;;;;;;;;;;19.00;38.90;;;;;;5040660;28;19909;-68
2022/11/22 04:01:07;;;;;;;;;;;19.00;38.90;;;;;;5025881;28;19933;-67
2022/11/22 04:03:34;;;;;;;;;;;19.00;38.90;;;;;;5052894;28;19914;-68
2022/11/22 04:06:01;;;;;;;;;;;19.00;38.90;;;;;;5062577;28;19909;-68
2022/11/22 04:08:28;;;;;;;;;;;19.00;38.90;;;;;;5057593;28;19977;-68
2022/11/22 04:10:56;;;;;;;;;;;19.00;38.90;;;;;;5033697;28;19909;-68
2022/11/22 04:15:05;;;;;;;;;;;19.00;38.90;;;;;;5055413;28;19943;-67
2022/11/22 04:16:11;;;;;;;;;;;19.00;38.90;;;;;;5040459;28;19924;-67
2022/11/22 04:18:41;;;;;;;;;;;19.00;38.80;;;;;;5039222;28;19916;-67
2022/11/22 04:26:35;;;;;;;;;;;19.00;38.80;;;;;;5030971;28;19913;-67
2022/11/22 04:29:02;;;;;;;;;;;19.00;38.80;;;;;;5057405;28;19914;-68
2022/11/22 04:34:13;;;;;;;;;;;19.00;38.80;;;;;;5035181;28;19909;-68
2022/11/22 04:36:40;;;;;;;;;;;19.00;38.80;;;;;;5034544;28;19932;-67
2022/11/22 04:39:07;;;;;;;;;;;19.00;38.80;;;;;;5047191;28;19918;-67
2022/11/22 04:41:35;;;;;;;;;;;19.00;38.80;;;;;;5051000;28;19913;-68
2022/11/22 04:46:46;;;;;;;;;;;19.00;38.80;;;;;;5037069;28;19909;-68
2022/11/22 04:49:13;;;;;;;;;;;19.00;38.80;;;;;;5057262;28;19932;-68
2022/11/22 04:54:25;;;;;;;;;;;19.00;38.80;;;;;;5029892;28;19932;-69
2022/11/22 04:56:53;;;;;;;;;;;18.90;38.70;;;;;;5030183;28;19924;-68
2022/11/22 04:59:20;;;;;;;;;;;18.90;38.70;;;;;;5043909;28;19940;-67
2022/11/22 05:01:47;;;;;;;;;;;18.90;38.70;;;;;;5028172;28;20046;-67
2022/11/22 05:04:13;;;;;;;;;;;18.90;38.70;;;;;;5044021;28;19917;-67
2022/11/22 05:06:40;;;;;;;;;;;18.90;38.70;;;;;;5051737;28;19916;-67
2022/11/22 05:09:10;;;;;;;;;;;19.00;38.70;;;;;;5044216;28;19917;-68
2022/11/22 05:11:36;;;;;;;;;;;18.90;38.70;;;;;;5060730;28;19909;-67
2022/11/22 05:14:05;;;;;;;;;;;18.90;38.70;;;;;;5038970;28;19912;-68
2022/11/22 05:16:31;;;;;;;;;;;18.90;38.70;;;;;;5043847;28;19915;-68
2022/11/22 05:19:01;;;;;;;;;;;18.90;38.70;;;;;;5053229;28;19909;-68
2022/11/22 05:21:28;;;;;;;;;;;19.00;38.70;;;;;;5061144;28;19917;-68
2022/11/22 05:23:54;;;;;;;;;;;18.90;38.70;;;;;;5042380;28;19913;-68
2022/11/22 05:26:21;;;;;;;;;;;18.90;38.60;;;;;;5043183;28;19933;-68
2022/11/22 05:28:48;;;;;;;;;;;18.90;38.60;;;;;;5043797;28;19913;-66
2022/11/22 05:31:21;;;;;;;;;;;18.90;38.70;;;;;;5029229;28;19913;-67
2022/11/22 05:33:48;;;;;;;;;;;18.90;38.70;;;;;;5041195;28;19916;-67
2022/11/22 05:36:15;;;;;;;;;;;18.90;38.70;;;;;;5028262;28;19909;-67
2022/11/22 05:38:42;;;;;;;;;;;18.90;38.60;;;;;;5043555;28;19940;-68
2022/11/22 05:41:09;;;;;;;;;;;18.90;38.60;;;;;;5041505;28;19940;-68
2022/11/22 05:43:36;;;;;;;;;;;18.90;38.70;;;;;;5043629;28;19940;-69
2022/11/22 05:46:06;;;;;;;;;;;18.90;38.70;;;;;;5055967;28;19932;-67
2022/11/22 05:48:35;;;;;;;;;;;18.90;38.70;;;;;;5059388;28;19936;-67
2022/11/22 05:51:03;;;;;;;;;;;19.00;38.70;;;;;;5041748;28;19940;-68
2022/11/22 05:53:30;;;;;;;;;;;18.90;38.70;;;;;;5029823;28;19956;-67
2022/11/22 05:55:57;;;;;;;;;;;18.90;38.70;;;;;;5042306;28;19913;-67
2022/11/22 05:58:24;;;;;;;;;;;18.90;38.70;;;;;;5056287;28;19923;-68
2022/11/22 06:00:50;;;;;;;;;;;18.90;38.70;;;;;;5055770;28;19920;-67
2022/11/22 06:03:17;;;;;;;;;;;19.00;38.80;;;;;;5056133;28;19921;-68
2022/11/22 06:05:52;;;;;;;;;;;18.90;38.70;;;;;;5050853;28;19911;-68
2022/11/22 06:08:18;;;;;;;;;;;19.00;38.80;;;;;;5055520;28;19909;-68
2022/11/22 06:10:45;;;;;;;;;;;19.00;38.80;;;;;;5063740;28;19940;-67
2022/11/22 06:13:12;;;;;;;;;;;19.00;38.80;;;;;;5047853;28;19932;-68
2022/11/22 06:15:39;;;;;;;;;;;18.90;38.80;;;;;;5054940;28;19916;-68
2022/11/22 06:18:05;;;;;;;;;;;19.00;38.90;;;;;;5049417;28;19913;-67
2022/11/22 06:20:32;;;;;;;;;;;19.00;38.90;;;;;;5062238;28;19909;-67
2022/11/22 06:23:01;;;;;;;;;;;18.90;38.80;;;;;;5046811;28;19924;-68
2022/11/22 06:25:28;;;;;;;;;;;18.90;38.90;;;;;;5046260;28;19909;-67
2022/11/22 06:27:58;;;;;;;;;;;19.00;38.90;;;;;;5039001;28;19909;-68
2022/11/22 06:30:25;;;;;;;;;;;19.00;38.90;;;;;;5031894;28;19935;-66
2022/11/22 06:32:52;;;;;;;;;;;19.00;38.90;;;;;;5025191;28;19943;-67
2022/11/22 06:35:18;;;;;;;;;;;18.90;38.90;;;;;;5049004;28;19932;-67
2022/11/22 06:37:45;;;;;;;;;;;19.00;39.00;;;;;;5032482;28;19914;-68
2022/11/22 06:40:15;;;;;;;;;;;19.00;39.00;;;;;;5028008;28;19919;-67
2022/11/22 06:42:42;;;;;;;;;;;18.90;38.90;;;;;;5041160;28;19920;-67
2022/11/22 06:45:09;;;;;;;;;;;19.00;39.00;;;;;;5048373;28;19913;-67
2022/11/22 06:47:36;;;;;;;;;;;19.00;39.00;;;;;;5041633;28;19912;-67
2022/11/22 06:50:03;;;;;;;;;;;19.00;39.00;;;;;;5049302;28;19909;-67
2022/11/22 06:52:29;;;;;;;;;;;19.00;39.10;;;;;;5059862;28;19909;-67
2022/11/22 06:54:59;;;;;;;;;;;19.00;39.10;;;;;;5059315;28;19915;-65
2022/11/22 06:57:27;;;;;;;;;;;19.00;39.10;;;;;;5045335;28;19909;-67
2022/11/22 06:59:54;;;;;;;;;;;19.00;39.10;;;;;;5059222;28;19909;-67
2022/11/22 07:02:21;;;;;;;;;;;19.00;39.10;;;;;;5074497;28;19908;-67
2022/11/22 07:04:47;;;;;;;;;;;19.00;39.10;;;;;;5032579;28;19967;-67
2022/11/22 07:07:14;;;;;;;;;;;19.00;39.10;;;;;;5050807;28;19936;-67
2022/11/22 07:09:41;;;;;;;;;;;19.00;39.10;;;;;;5041839;28;19915;-68
2022/11/22 07:12:08;;;;;;;;;;;19.00;39.10;;;;;;5039753;28;19940;-65
2022/11/22 07:14:36;;;;;;;;;;;19.00;39.10;;;;;;5053497;28;19915;-68
2022/11/22 07:17:02;;;;;;;;;;;19.00;39.10;;;;;;5058717;28;19943;-67
2022/11/22 07:19:29;;;;;;;;;;;19.00;39.20;;;;;;5048174;28;19913;-67
2022/11/22 07:21:56;;;;;;;;;;;19.00;39.20;;;;;;5053632;28;19916;-68
2022/11/22 07:24:23;;;;;;;;;;;19.00;39.20;;;;;;5053407;28;19913;-68
2022/11/22 07:26:50;;;;;;;;;;;19.00;39.20;;;;;;5039022;28;19925;-67
2022/11/22 07:29:16;;;;;;;;;;;19.00;39.20;;;;;;5047216;28;19937;-68
2022/11/22 07:31:46;;;;;;;;;;;19.00;39.20;;;;;;5039871;28;20040;-67
2022/11/22 07:34:13;;;;;;;;;;;19.00;39.20;;;;;;5041183;28;19917;-68
2022/11/22 07:36:40;;;;;;;;;;;19.00;39.20;;;;;;5041307;28;19931;-67
2022/11/22 07:39:06;;;;;;;;;;;19.00;39.20;;;;;;5054402;28;19929;-68
2022/11/22 07:41:33;;;;;;;;;;;19.00;39.30;;;;;;5063242;28;19913;-67
2022/11/22 07:44:00;;;;;;;;;;;19.00;39.30;;;;;;5063838;28;19940;-67
2022/11/22 07:46:29;;;;;;;;;;;19.00;39.30;;;;;;5047972;28;19933;-68
2022/11/22 07:48:58;;;;;;;;;;;19.00;39.30;;;;;;5042392;28;19920;-68
2022/11/22 07:51:24;;;;;;;;;;;19.00;39.30;;;;;;5037153;28;19914;-67
2022/11/22 07:53:51;;;;;;;;;;;19.00;39.30;;;;;;5030933;28;19909;-69
2022/11/22 07:56:18;;;;;;;;;;;19.00;39.30;;;;;;5023904;28;19910;-69
2022/11/22 07:58:45;;;;;;;;;;;19.00;39.30;;;;;;5047093;28;19939;-69
2022/11/22 08:01:12;;;;;;;;;;;19.00;39.10;;;;;;5059520;28;19916;-69
2022/11/22 08:03:39;;;;;;;;;;;19.00;38.70;;;;;;5060109;28;19944;-68
2022/11/22 08:06:07;;;;;;;;;;;19.00;38.10;;;;;;5060055;28;19909;-69
2022/11/22 08:08:34;;;;;;;;;;;19.00;37.80;;;;;;5059468;28;19909;-70
2022/11/22 08:11:01;;;;;;;;;;;18.90;37.50;;;;;;5059586;28;19924;-68
2022/11/22 08:13:28;;;;;;;;;;;18.90;37.10;;;;;;5059304;28;19967;-69
2022/11/22 08:15:55;;;;;;;;;;;18.90;37.00;;;;;;5059438;28;19909;-67
2022/11/22 08:18:22;;;;;;;;;;;18.90;36.70;;;;;;5059256;28;19909;-68
2022/11/22 08:20:48;;;;;;;;;;;18.90;36.50;;;;;;5059946;28;19917;-68
2022/11/22 08:23:17;;;;;;;;;;;18.80;36.20;;;;;;5043946;28;19910;-67
2022/11/22 08:25:44;;;;;;;;;;;18.80;35.90;;;;;;5023049;28;19936;-66
2022/11/22 08:28:11;;;;;;;;;;;18.80;35.80;;;;;;5024510;28;19916;-66
2022/11/22 08:30:37;;;;;;;;;;;18.80;35.60;;;;;;5027067;28;19916;-65
2022/11/22 08:33:04;;;;;;;;;;;18.70;35.30;;;;;;5038215;28;19909;-66
2022/11/22 08:35:31;;;;;;;;;;;18.70;35.60;;;;;;5045171;28;19932;-67
2022/11/22 08:37:58;;;;;;;;;;;18.70;35.90;;;;;;5046074;28;19913;-67
2022/11/22 08:40:26;;;;;;;;;;;18.70;36.10;;;;;;5062227;28;19913;-65
2022/11/22 08:42:53;;;;;;;;;;;18.70;36.30;;;;;;5046567;28;19937;-65
2022/11/22 08:45:20;;;;;;;;;;;18.70;36.50;;;;;;5063061;28;19913;-64
2022/11/22 08:47:47;;;;;;;;;;;18.70;36.70;;;;;;5063718;28;19916;-65
2022/11/22 08:50:14;;;;;;;;;;;18.80;36.90;;;;;;5046468;28;19920;-65
2022/11/22 08:52:41;;;;;;;;;;;18.80;37.00;;;;;;5074110;28;19940;-67
2022/11/22 08:55:08;;;;;;;;;;;18.80;37.10;;;;;;5046539;28;19931;-66
2022/11/22 08:57:37;;;;;;;;;;;18.80;37.70;;;;;;5046338;28;19913;-65
2022/11/22 09:00:04;;;;;;;;;;;18.80;37.30;;;;;;5061487;28;19913;-67
2022/11/22 09:02:31;;;;;;;;;;;18.80;37.30;;;;;;5061742;28;19984;-67
2022/11/22 09:04:58;;;;;;;;;;;18.80;37.40;;;;;;5063198;28;19909;-64
2022/11/22 09:07:25;;;;;;;;;;;18.80;37.40;;;;;;5044654;28;19920;-67
2022/11/22 09:09:51;;;;;;;;;;;18.80;37.50;;;;;;5059702;28;19933;-67
2022/11/22 09:12:18;;;;;;;;;;;18.80;37.50;;;;;;5076410;28;19913;-68
2022/11/22 09:14:46;;;;;;;;;;;18.80;37.60;;;;;;5080373;28;19909;-67
2022/11/22 09:17:13;;;;;;;;;;;18.90;37.70;;;;;;5064353;28;19931;-67
2022/11/22 09:19:40;;;;;;;;;;;18.90;37.80;;;;;;5083094;28;19916;-65
2022/11/22 09:22:07;;;;;;;;;;;18.90;37.80;;;;;;5065921;28;19931;-66
2022/11/22 09:24:33;;;;;;;;;;;18.90;37.80;;;;;;5065839;28;19913;-65
2022/11/22 09:27:00;;;;;;;;;;;18.90;37.90;;;;;;5043086;28;19972;-65
2022/11/22 09:29:27;;;;;;;;;;;18.90;37.90;;;;;;5059295;28;19972;-66
2022/11/22 09:31:56;;;;;;;;;;;18.90;38.00;;;;;;5062390;28;19940;-65
2022/11/22 09:34:22;;;;;;;;;;;18.90;38.00;;;;;;5062841;28;19924;-65
2022/11/22 09:36:49;;;;;;;;;;;18.90;38.00;;;;;;5045612;28;19921;-67
2022/11/22 09:39:19;;;;;;;;;;;18.90;38.00;;;;;;5062473;28;19916;-65
2022/11/22 09:42:16;;;;;;;;;;;18.90;38.10;;;;;;5052311;28;19921;-66
2022/11/22 09:44:45;;;;;;;;;;;18.90;38.10;;;;;;5022082;28;19914;-68
2022/11/22 09:47:16;;;;;;;;;;;18.90;38.10;;;;;;5039267;28;19976;-68
2022/11/22 09:49:45;;;;;;;;;;;19.00;38.20;;;;;;5043824;28;19913;-67
2022/11/22 09:52:13;;;;;;;;;;;19.00;38.30;;;;;;5045364;28;19909;-66
2022/11/22 09:54:40;;;;;;;;;;;19.00;38.30;;;;;;5045361;28;19924;-66
2022/11/22 09:57:09;;;;;;;;;;;19.00;38.30;;;;;;5045347;28;19909;-66
2022/11/22 09:59:36;;;;;;;;;;;19.00;38.30;;;;;;5062326;28;19931;-66
2022/11/22 10:02:04;;;;;;;;;;;19.00;38.40;;;;;;5045303;28;19909;-66
2022/11/22 10:04:34;;;;;;;;;;;19.00;38.40;;;;;;5060359;28;19909;-66
2022/11/22 10:07:01;;;;;;;;;;;19.00;38.40;;;;;;5061737;28;19917;-66
2022/11/22 10:09:30;;;;;;;;;;;19.00;38.40;;;;;;5050604;28;19909;-67
2022/11/22 10:11:58;;;;;;;;;;;19.00;38.40;;;;;;5041084;28;19913;-66
2022/11/22 10:14:30;;;;;;;;;;;19.00;38.50;;;;;;5049334;28;19940;-66
2022/11/22 10:16:57;;;;;;;;;;;19.10;38.60;;;;;;5044915;28;19910;-66
2022/11/22 10:19:26;;;;;;;;;;;19.10;38.60;;;;;;5044929;28;19916;-66
2022/11/22 10:21:54;;;;;;;;;;;19.10;38.60;;;;;;5061956;28;19976;-67
2022/11/22 10:24:21;;;;;;;;;;;19.10;38.60;;;;;;5043061;28;19941;-67
2022/11/22 10:26:48;;;;;;;;;;;19.10;38.70;;;;;;5044671;28;19909;-65
2022/11/22 10:29:18;;;;;;;;;;;19.10;38.70;;;;;;5044757;28;19916;-65
2022/11/22 10:31:47;;;;;;;;;;;19.10;38.70;;;;;;5045113;28;19913;-68
2022/11/22 10:34:16;;;;;;;;;;;19.10;38.70;;;;;;5044577;28;19913;-66
2022/11/22 10:36:44;;;;;;;;;;;19.10;38.70;;;;;;5044560;28;19956;-66
2022/11/22 10:39:17;;;;;;;;;;;19.10;38.70;;;;;;5059140;28;19913;-65
2022/11/22 10:41:46;;;;;;;;;;;19.10;38.70;;;;;;5061548;28;19916;-66
2022/11/22 10:44:16;;;;;;;;;;;19.10;38.70;;;;;;5042630;28;19924;-68
2022/11/22 10:46:46;;;;;;;;;;;19.10;38.70;;;;;;5042711;28;19972;-67
2022/11/22 10:49:16;;;;;;;;;;;19.10;38.80;;;;;;5042753;28;19914;-68
2022/11/22 10:51:44;;;;;;;;;;;19.10;38.80;;;;;;5052955;28;19913;-68
2022/11/22 10:54:12;;;;;;;;;;;19.10;38.80;;;;;;5064105;28;19909;-65
2022/11/22 10:56:41;;;;;;;;;;;19.10;38.80;;;;;;5064062;28;19931;-66
2022/11/22 10:59:15;;;;;;;;;;;19.10;38.80;;;;;;5064005;28;19924;-66
2022/11/22 11:01:43;;;;;;;;;;;19.10;38.80;;;;;;5062223;28;19909;-67
2022/11/22 11:04:10;;;;;;;;;;;19.10;38.90;;;;;;5063294;28;19952;-67
2022/11/22 11:06:37;;;;;;;;;;;19.20;39.00;;;;;;5060960;28;19917;-67
2022/11/22 11:09:05;;;;;;;;;;;19.20;39.00;;;;;;5054318;28;19909;-68
2022/11/22 11:11:31;;;;;;;;;;;19.10;38.90;;;;;;5060261;28;19910;-68
2022/11/22 11:14:00;;;;;;;;;;;19.10;38.90;;;;;;5048939;28;19916;-68
2022/11/22 11:16:29;;;;;;;;;;;19.10;38.90;;;;;;5049663;28;19913;-68
2022/11/22 11:18:56;;;;;;;;;;;19.20;39.00;;;;;;5043707;28;19916;-68
2022/11/22 11:21:24;;;;;;;;;;;19.10;38.90;;;;;;5057879;28;19913;-68
2022/11/22 11:23:51;;;;;;;;;;;19.10;39.00;;;;;;5042229;28;19909;-67
2022/11/22 11:26:19;;;;;;;;;;;19.20;39.10;;;;;;5044990;28;19931;-68
2022/11/22 11:28:46;;;;;;;;;;;19.10;39.00;;;;;;5063530;28;19913;-67
2022/11/22 11:31:17;;;;;;;;;;;19.20;39.10;;;;;;5063390;28;19912;-66
2022/11/22 11:33:44;;;;;;;;;;;19.20;39.10;;;;;;5080586;28;19951;-66
2022/11/22 11:36:11;;;;;;;;;;;19.20;39.10;;;;;;5063245;28;19959;-66
2022/11/22 11:38:38;;;;;;;;;;;19.20;39.10;;;;;;5061499;28;19909;-67
2022/11/22 11:41:32;;;;;;;;;;;19.20;39.10;;;;;;5058925;28;19943;-66
2022/11/22 11:43:59;;;;;;;;;;;19.20;39.70;;;;;;5009113;28;19932;-67
2022/11/22 11:46:28;;;;;;;;;;;19.20;39.20;;;;;;5043301;28;19909;-67
2022/11/22 11:48:55;;;;;;;;;;;19.20;39.20;;;;;;5032901;28;19985;-68
2022/11/22 11:51:22;;;;;;;;;;;19.20;39.20;;;;;;5035594;28;19909;-68
2022/11/22 11:54:04;;;;;;;;;;;19.20;39.20;;;;;;5073372;28;19909;-68
2022/11/22 11:56:32;;;;;;;;;;;19.20;39.20;;;;;;5037696;28;19923;-68
2022/11/22 11:58:59;;;;;;;;;;;19.20;39.20;;;;;;5039425;28;19913;-68
2022/11/22 12:01:28;;;;;;;;;;;19.20;39.20;;;;;;5039499;28;19913;-67
2022/11/22 12:03:55;;;;;;;;;;;19.20;39.20;;;;;;5047853;28;19916;-67
2022/11/22 12:06:22;;;;;;;;;;;19.20;39.20;;;;;;5050575;28;19909;-68
2022/11/22 12:08:48;;;;;;;;;;;19.20;39.30;;;;;;5059862;28;19913;-68
2022/11/22 12:11:17;;;;;;;;;;;19.20;39.30;;;;;;5038714;28;19909;-66
2022/11/22 12:13:44;;;;;;;;;;;19.20;39.30;;;;;;5061705;28;19913;-67
2022/11/22 12:16:13;;;;;;;;;;;19.20;39.30;;;;;;5040769;28;19981;-68
2022/11/22 12:18:43;;;;;;;;;;;19.20;39.30;;;;;;5060296;28;19936;-67
2022/11/22 12:21:16;;;;;;;;;;;19.20;39.30;;;;;;5037619;28;19913;-67
2022/11/22 12:23:45;;;;;;;;;;;19.20;39.30;;;;;;5041868;28;19913;-67
2022/11/22 12:26:11;;;;;;;;;;;19.20;39.30;;;;;;5039743;28;19940;-67
2022/11/22 12:28:38;;;;;;;;;;;19.20;39.30;;;;;;5065044;28;19920;-67
2022/11/22 12:31:05;;;;;;;;;;;19.20;39.40;;;;;;5067349;28;19924;-67
2022/11/22 12:33:34;;;;;;;;;;;19.20;39.40;;;;;;5050451;28;19932;-69
2022/11/22 12:36:02;;;;;;;;;;;19.20;39.40;;;;;;5052008;28;19909;-67
2022/11/22 12:38:29;;;;;;;;;;;19.20;39.40;;;;;;5044659;28;19909;-67
2022/11/22 12:40:57;;;;;;;;;;;19.20;39.40;;;;;;5051130;28;19909;-67
2022/11/22 12:43:24;;;;;;;;;;;19.20;39.50;;;;;;5056485;28;19931;-68
2022/11/22 12:45:51;;;;;;;;;;;19.30;39.60;;;;;;5049935;28;19935;-68
2022/11/22 12:48:19;;;;;;;;;;;19.20;39.50;;;;;;5045817;28;19909;-68
2022/11/22 12:50:46;;;;;;;;;;;19.30;39.60;;;;;;5047782;28;19931;-66
2022/11/22 12:53:15;;;;;;;;;;;19.30;39.60;;;;;;5061679;28;19985;-68
2022/11/22 12:55:43;;;;;;;;;;;19.30;39.60;;;;;;5056665;28;19943;-67
2022/11/22 12:58:14;;;;;;;;;;;19.30;39.70;;;;;;5049328;28;19923;-67
2022/11/22 13:00:43;;;;;;;;;;;19.30;39.70;;;;;;5049042;28;19933;-68
2022/11/22 13:03:12;;;;;;;;;;;19.30;39.70;;;;;;5044532;28;19908;-68
2022/11/22 13:05:40;;;;;;;;;;;19.30;39.70;;;;;;5051199;28;19909;-67
2022/11/22 13:08:09;;;;;;;;;;;19.30;39.70;;;;;;5047125;28;19913;-66
2022/11/22 13:10:38;;;;;;;;;;;19.30;39.80;;;;;;5061475;28;19920;-67
2022/11/22 13:13:06;;;;;;;;;;;19.30;40.40;;;;;;5050379;28;19910;-67
2022/11/22 13:15:36;;;;;;;;;;;19.30;39.80;;;;;;5063762;28;19913;-67
2022/11/22 13:18:03;;;;;;;;;;;19.30;39.80;;;;;;5071655;28;19931;-65
2022/11/22 13:20:35;;;;;;;;;;;19.30;39.80;;;;;;5071747;28;19909;-66
2022/11/22 13:23:08;;;;;;;;;;;19.30;39.80;;;;;;5043433;28;19921;-67
2022/11/22 13:25:44;;;;;;;;;;;19.30;39.90;;;;;;5042734;28;19909;-66
2022/11/22 13:28:12;;;;;;;;;;;19.30;39.90;;;;;;5038048;28;19916;-67
2022/11/22 13:30:39;;;;;;;;;;;19.30;39.90;;;;;;5065314;28;19916;-67
2022/11/22 13:33:06;;;;;;;;;;;19.30;39.90;;;;;;5045117;28;19913;-67
2022/11/22 13:35:33;;;;;;;;;;;19.30;39.90;;;;;;5058418;28;19987;-66
2022/11/22 13:38:00;;;;;;;;;;;19.30;39.90;;;;;;5053708;28;19908;-66
2022/11/22 13:40:28;;;;;;;;;;;19.30;39.90;;;;;;5073709;28;19909;-66
2022/11/22 13:43:13;;;;;;;;;;;19.30;39.90;;;;;;5041395;28;19921;-66
2022/11/22 13:45:47;;;;;;;;;;;19.30;39.90;;;;;;5046461;28;19913;-66
2022/11/22 13:48:16;;;;;;;;;;;19.30;39.90;;;;;;5057191;28;19909;-66
2022/11/22 13:51:01;;;;;;;;;;;19.30;40.00;;;;;;5065746;28;19925;-66
2022/11/22 13:53:31;;;;;;;;;;;19.40;40.10;;;;;;5064850;28;19909;-65
2022/11/22 13:55:58;;;;;;;;;;;19.30;40.00;;;;;;5052759;28;19913;-66
2022/11/22 13:58:54;;;;;;;;;;;19.30;40.00;;;;;;5056972;28;19952;-67
2022/11/22 14:01:54;;;;;;;;;;;19.30;40.00;;;;;;5069967;28;19947;-66
2022/11/22 14:04:32;;;;;;;;;;;19.30;40.00;;;;;;5054681;28;19940;-67
2022/11/22 14:07:01;;;;;;;;;;;19.30;40.00;;;;;;5052841;28;19913;-66
2022/11/22 14:09:32;;;;;;;;;;;19.30;40.00;;;;;;5043404;28;19916;-68
2022/11/22 14:12:04;;;;;;;;;;;19.30;40.00;;;;;;5056438;28;19962;-68
2022/11/22 14:14:31;;;;;;;;;;;19.30;40.00;;;;;;5053635;28;19916;-67
2022/11/22 14:17:02;;;;;;;;;;;19.40;40.20;;;;;;5044591;28;19925;-68
2022/11/22 14:19:33;;;;;;;;;;;19.30;40.10;;;;;;5068498;28;19940;-66
2022/11/22 14:22:15;;;;;;;;;;;19.40;40.20;;;;;;5041783;28;19977;-66
2022/11/22 14:24:45;;;;;;;;;;;19.40;40.20;;;;;;5046510;28;19985;-66
2022/11/22 14:27:17;;;;;;;;;;;19.40;40.20;;;;;;5041546;28;19909;-67
2022/11/22 14:29:50;;;;;;;;;;;19.40;40.20;;;;;;5043818;28;19921;-66
2022/11/22 14:32:19;;;;;;;;;;;19.40;40.30;;;;;;5045818;28;19909;-66
2022/11/22 14:35:05;;;;;;;;;;;19.40;40.30;;;;;;5059441;28;19909;-67
2022/11/22 14:37:35;;;;;;;;;;;19.40;40.30;;;;;;5040478;28;19909;-67